sensor_id;sensor_type;location;lat;lon;timestamp;pressure;altitude;pressure_sealevel;temperature;humidity
56992;BME280;42885;49.754;18.636;2023-09-19T00:00:01;97596.72;;;24.31;83.06
56992;BME280;42885;49.754;18.636;2023-09-19T00:02:33;97588.03;;;24.40;82.10
56992;BME280;42885;49.754;18.636;2023-09-19T00:05:05;97586.81;;;24.43;82.10
56992;BME280;42885;49.754;18.636;2023-09-19T00:07:57;97586.52;;;24.49;82.14
56992;BME280;42885;49.754;18.636;2023-09-19T00:10:47;97587.86;;;24.49;82.02
56992;BME280;42885;49.754;18.636;2023-09-19T00:13:27;97583.75;;;24.53;81.74
56992;BME280;42885;49.754;18.636;2023-09-19T00:16:07;97589.44;;;24.54;82.48
56992;BME280;42885;49.754;18.636;2023-09-19T00:18:38;97580.89;;;24.61;81.73
56992;BME280;42885;49.754;18.636;2023-09-19T00:21:08;97576.83;;;24.72;81.26
56992;BME280;42885;49.754;18.636;2023-09-19T00:23:39;97575.28;;;24.67;81.79
56992;BME280;42885;49.754;18.636;2023-09-19T00:26:11;97577.95;;;24.67;81.74
56992;BME280;42885;49.754;18.636;2023-09-19T00:28:43;97576.20;;;24.63;83.32
56992;BME280;42885;49.754;18.636;2023-09-19T00:31:26;97576.38;;;24.55;83.23
56992;BME280;42885;49.754;18.636;2023-09-19T00:34:05;97575.36;;;24.63;83.14
56992;BME280;42885;49.754;18.636;2023-09-19T00:36:37;97573.15;;;24.49;84.18
56992;BME280;42885;49.754;18.636;2023-09-19T00:39:14;97579.64;;;24.50;85.46
56992;BME280;42885;49.754;18.636;2023-09-19T00:41:51;97580.62;;;24.42;85.65
56992;BME280;42885;49.754;18.636;2023-09-19T00:44:25;97570.91;;;24.52;85.49
56992;BME280;42885;49.754;18.636;2023-09-19T00:46:56;97575.28;;;24.42;85.89
56992;BME280;42885;49.754;18.636;2023-09-19T00:49:37;97578.24;;;24.37;87.01
56992;BME280;42885;49.754;18.636;2023-09-19T00:52:14;97570.29;;;24.50;86.45
56992;BME280;42885;49.754;18.636;2023-09-19T00:54:48;97564.77;;;24.58;85.97
56992;BME280;42885;49.754;18.636;2023-09-19T00:57:20;97565.44;;;24.50;87.04
56992;BME280;42885;49.754;18.636;2023-09-19T00:59:56;97558.03;;;24.52;87.40
56992;BME280;42885;49.754;18.636;2023-09-19T01:02:45;97560.02;;;24.54;87.00
56992;BME280;42885;49.754;18.636;2023-09-19T01:05:16;97559.84;;;24.62;86.45
56992;BME280;42885;49.754;18.636;2023-09-19T01:07:51;97561.55;;;24.59;86.86
56992;BME280;42885;49.754;18.636;2023-09-19T01:10:36;97553.83;;;24.53;87.66
56992;BME280;42885;49.754;18.636;2023-09-19T01:13:22;97550.84;;;24.52;88.28
56992;BME280;42885;49.754;18.636;2023-09-19T01:16:10;97547.44;;;24.47;88.26
56992;BME280;42885;49.754;18.636;2023-09-19T01:19:07;97541.55;;;24.41;89.19
56992;BME280;42885;49.754;18.636;2023-09-19T01:21:55;97542.40;;;24.49;89.00
56992;BME280;42885;49.754;18.636;2023-09-19T01:28:25;97540.34;;;24.51;89.12
56992;BME280;42885;49.754;18.636;2023-09-19T01:30:56;97538.63;;;24.60;89.16
56992;BME280;42885;49.754;18.636;2023-09-19T01:34:01;97539.13;;;24.60;89.57
56992;BME280;42885;49.754;18.636;2023-09-19T01:36:37;97541.01;;;24.66;89.68
56992;BME280;42885;49.754;18.636;2023-09-19T01:39:13;97543.19;;;24.67;89.59
56992;BME280;42885;49.754;18.636;2023-09-19T01:42:00;97540.88;;;24.57;90.86
56992;BME280;42885;49.754;18.636;2023-09-19T01:44:55;97537.47;;;24.52;91.34
56992;BME280;42885;49.754;18.636;2023-09-19T01:47:46;97541.09;;;24.31;96.01
56992;BME280;42885;49.754;18.636;2023-09-19T01:50:30;97549.34;;;24.12;99.15
56992;BME280;42885;49.754;18.636;2023-09-19T01:53:14;97551.23;;;23.72;100.00
56992;BME280;42885;49.754;18.636;2023-09-19T01:55:46;97551.23;;;23.72;100.00
56992;BME280;42885;49.754;18.636;2023-09-19T01:58:27;97564.76;;;23.53;100.00
56992;BME280;42885;49.754;18.636;2023-09-19T02:00:58;97561.70;;;23.45;100.00
56992;BME280;42885;49.754;18.636;2023-09-19T02:03:31;97560.77;;;23.31;100.00
56992;BME280;42885;49.754;18.636;2023-09-19T02:06:04;97560.77;;;22.98;100.00
56992;BME280;42885;49.754;18.636;2023-09-19T02:08:37;97558.28;;;22.96;100.00
56992;BME280;42885;49.754;18.636;2023-09-19T02:11:21;97554.92;;;22.88;100.00
56992;BME280;42885;49.754;18.636;2023-09-19T02:13:53;97557.72;;;22.79;100.00
56992;BME280;42885;49.754;18.636;2023-09-19T02:16:42;97556.48;;;22.82;100.00
56992;BME280;42885;49.754;18.636;2023-09-19T02:19:14;97558.84;;;22.81;100.00
56992;BME280;42885;49.754;18.636;2023-09-19T02:21:46;97550.64;;;22.72;100.00
56992;BME280;42885;49.754;18.636;2023-09-19T02:24:18;97553.73;;;22.64;100.00
56992;BME280;42885;49.754;18.636;2023-09-19T02:26:52;97549.83;;;22.71;100.00
56992;BME280;42885;49.754;18.636;2023-09-19T02:29:33;97549.37;;;22.78;100.00
56992;BME280;42885;49.754;18.636;2023-09-19T02:32:11;97552.10;;;22.48;100.00
56992;BME280;42885;49.754;18.636;2023-09-19T02:34:48;97541.75;;;22.49;100.00
56992;BME280;42885;49.754;18.636;2023-09-19T02:37:26;97536.04;;;22.41;100.00
56992;BME280;42885;49.754;18.636;2023-09-19T02:40:15;97534.88;;;22.40;100.00
56992;BME280;42885;49.754;18.636;2023-09-19T02:43:07;97535.95;;;22.50;100.00
56992;BME280;42885;49.754;18.636;2023-09-19T02:45:38;97530.92;;;22.36;100.00
56992;BME280;42885;49.754;18.636;2023-09-19T02:48:16;97531.09;;;22.23;100.00
56992;BME280;42885;49.754;18.636;2023-09-19T02:51:00;97519.91;;;22.39;100.00
56992;BME280;42885;49.754;18.636;2023-09-19T02:53:34;97521.03;;;22.40;100.00
56992;BME280;42885;49.754;18.636;2023-09-19T02:56:12;97520.83;;;22.31;100.00
56992;BME280;42885;49.754;18.636;2023-09-19T02:58:43;97521.98;;;22.33;100.00
56992;BME280;42885;49.754;18.636;2023-09-19T03:01:14;97516.98;;;22.45;100.00
56992;BME280;42885;49.754;18.636;2023-09-19T03:03:45;97522.71;;;22.41;100.00
56992;BME280;42885;49.754;18.636;2023-09-19T03:06:24;97514.95;;;22.47;100.00
56992;BME280;42885;49.754;18.636;2023-09-19T03:08:55;97514.30;;;22.34;100.00
56992;BME280;42885;49.754;18.636;2023-09-19T03:11:35;97513.70;;;22.43;100.00
56992;BME280;42885;49.754;18.636;2023-09-19T03:14:06;97508.55;;;22.78;100.00
56992;BME280;42885;49.754;18.636;2023-09-19T03:16:43;97514.69;;;22.78;100.00
56992;BME280;42885;49.754;18.636;2023-09-19T03:19:24;97520.16;;;22.33;100.00
56992;BME280;42885;49.754;18.636;2023-09-19T03:21:59;97519.52;;;22.42;100.00
56992;BME280;42885;49.754;18.636;2023-09-19T03:24:32;97523.45;;;22.09;100.00
56992;BME280;42885;49.754;18.636;2023-09-19T03:27:10;97517.70;;;22.17;100.00
56992;BME280;42885;49.754;18.636;2023-09-19T03:29:43;97519.48;;;22.05;100.00
56992;BME280;42885;49.754;18.636;2023-09-19T03:32:15;97522.57;;;22.13;100.00
56992;BME280;42885;49.754;18.636;2023-09-19T03:34:45;97520.26;;;22.25;100.00
56992;BME280;42885;49.754;18.636;2023-09-19T03:37:18;97520.00;;;22.05;100.00
56992;BME280;42885;49.754;18.636;2023-09-19T03:39:49;97519.24;;;22.37;100.00
56992;BME280;42885;49.754;18.636;2023-09-19T03:42:26;97527.91;;;22.39;100.00
56992;BME280;42885;49.754;18.636;2023-09-19T03:45:15;97541.66;;;22.32;100.00
56992;BME280;42885;49.754;18.636;2023-09-19T03:48:01;97546.38;;;22.25;100.00
56992;BME280;42885;49.754;18.636;2023-09-19T03:50:35;97542.53;;;22.28;100.00
56992;BME280;42885;49.754;18.636;2023-09-19T03:53:06;97533.48;;;22.33;100.00
56992;BME280;42885;49.754;18.636;2023-09-19T03:55:40;97540.83;;;22.57;100.00
56992;BME280;42885;49.754;18.636;2023-09-19T03:58:14;97541.32;;;22.05;100.00
56992;BME280;42885;49.754;18.636;2023-09-19T04:00:45;97539.64;;;22.04;100.00
56992;BME280;42885;49.754;18.636;2023-09-19T04:03:18;97533.48;;;22.18;100.00
56992;BME280;42885;49.754;18.636;2023-09-19T04:05:50;97536.60;;;22.22;100.00
56992;BME280;42885;49.754;18.636;2023-09-19T04:08:24;97534.74;;;22.37;100.00
56992;BME280;42885;49.754;18.636;2023-09-19T04:11:02;97526.64;;;22.46;100.00
56992;BME280;42885;49.754;18.636;2023-09-19T04:13:33;97523.14;;;22.19;100.00
56992;BME280;42885;49.754;18.636;2023-09-19T04:16:04;97515.98;;;22.20;100.00
56992;BME280;42885;49.754;18.636;2023-09-19T04:18:36;97520.72;;;22.13;100.00
56992;BME280;42885;49.754;18.636;2023-09-19T04:21:11;97518.44;;;22.10;100.00
56992;BME280;42885;49.754;18.636;2023-09-19T04:23:48;97518.98;;;22.06;100.00
56992;BME280;42885;49.754;18.636;2023-09-19T04:26:19;97524.11;;;22.07;100.00
56992;BME280;42885;49.754;18.636;2023-09-19T04:28:51;97525.13;;;22.06;100.00
56992;BME280;42885;49.754;18.636;2023-09-19T04:31:25;97525.59;;;22.10;100.00
56992;BME280;42885;49.754;18.636;2023-09-19T04:34:00;97527.90;;;22.13;100.00
56992;BME280;42885;49.754;18.636;2023-09-19T04:36:32;97527.84;;;22.17;100.00
56992;BME280;42885;49.754;18.636;2023-09-19T04:39:04;97535.09;;;22.23;100.00
56992;BME280;42885;49.754;18.636;2023-09-19T04:41:38;97539.02;;;22.27;100.00
56992;BME280;42885;49.754;18.636;2023-09-19T04:44:19;97544.20;;;22.14;100.00
56992;BME280;42885;49.754;18.636;2023-09-19T04:46:50;97550.27;;;22.08;100.00
56992;BME280;42885;49.754;18.636;2023-09-19T04:49:21;97553.00;;;22.14;100.00
56992;BME280;42885;49.754;18.636;2023-09-19T04:51:52;97551.81;;;22.17;100.00
56992;BME280;42885;49.754;18.636;2023-09-19T04:54:23;97549.78;;;22.19;100.00
56992;BME280;42885;49.754;18.636;2023-09-19T04:56:57;97564.17;;;21.99;100.00
56992;BME280;42885;49.754;18.636;2023-09-19T04:59:37;97561.80;;;22.04;100.00
56992;BME280;42885;49.754;18.636;2023-09-19T05:02:13;97565.04;;;21.80;100.00
56992;BME280;42885;49.754;18.636;2023-09-19T05:04:44;97571.20;;;21.96;100.00
56992;BME280;42885;49.754;18.636;2023-09-19T05:07:15;97567.50;;;22.01;100.00
56992;BME280;42885;49.754;18.636;2023-09-19T05:09:46;97575.75;;;22.06;100.00
56992;BME280;42885;49.754;18.636;2023-09-19T05:12:17;97584.58;;;22.07;100.00
56992;BME280;42885;49.754;18.636;2023-09-19T05:15:07;97584.48;;;22.15;100.00
56992;BME280;42885;49.754;18.636;2023-09-19T05:17:40;97593.66;;;22.27;100.00
56992;BME280;42885;49.754;18.636;2023-09-19T05:20:11;97600.70;;;22.24;100.00
56992;BME280;42885;49.754;18.636;2023-09-19T05:22:46;97604.56;;;22.07;100.00
56992;BME280;42885;49.754;18.636;2023-09-19T05:25:17;97606.27;;;22.19;100.00
56992;BME280;42885;49.754;18.636;2023-09-19T05:27:52;97610.15;;;22.12;100.00
56992;BME280;42885;49.754;18.636;2023-09-19T05:30:26;97620.05;;;22.22;100.00
56992;BME280;42885;49.754;18.636;2023-09-19T05:33:03;97621.16;;;22.13;100.00
56992;BME280;42885;49.754;18.636;2023-09-19T05:35:35;97621.42;;;22.03;100.00
56992;BME280;42885;49.754;18.636;2023-09-19T05:38:19;97633.58;;;22.02;100.00
56992;BME280;42885;49.754;18.636;2023-09-19T05:40:53;97637.72;;;22.04;100.00
56992;BME280;42885;49.754;18.636;2023-09-19T05:43:24;97635.70;;;21.87;100.00
56992;BME280;42885;49.754;18.636;2023-09-19T05:45:55;97638.03;;;21.90;100.00
56992;BME280;42885;49.754;18.636;2023-09-19T05:48:29;97640.78;;;21.97;100.00
56992;BME280;42885;49.754;18.636;2023-09-19T05:51:03;97644.09;;;21.99;100.00
56992;BME280;42885;49.754;18.636;2023-09-19T05:53:52;97642.83;;;21.91;100.00
56992;BME280;42885;49.754;18.636;2023-09-19T05:56:24;97645.80;;;21.77;100.00
56992;BME280;42885;49.754;18.636;2023-09-19T05:58:55;97643.83;;;21.51;100.00
56992;BME280;42885;49.754;18.636;2023-09-19T06:01:45;97652.28;;;21.55;100.00
56992;BME280;42885;49.754;18.636;2023-09-19T06:04:34;97650.66;;;21.73;100.00
56992;BME280;42885;49.754;18.636;2023-09-19T06:07:11;97656.77;;;21.78;100.00
56992;BME280;42885;49.754;18.636;2023-09-19T06:09:54;97665.88;;;21.60;100.00
56992;BME280;42885;49.754;18.636;2023-09-19T06:12:29;97674.02;;;21.63;100.00
56992;BME280;42885;49.754;18.636;2023-09-19T06:15:08;97682.98;;;21.70;100.00
56992;BME280;42885;49.754;18.636;2023-09-19T06:17:51;97695.27;;;21.75;100.00
56992;BME280;42885;49.754;18.636;2023-09-19T06:20:27;97697.08;;;21.75;100.00
56992;BME280;42885;49.754;18.636;2023-09-19T06:23:16;97701.77;;;21.72;100.00
56992;BME280;42885;49.754;18.636;2023-09-19T06:25:50;97709.00;;;21.83;100.00
56992;BME280;42885;49.754;18.636;2023-09-19T06:28:41;97709.69;;;21.81;100.00
56992;BME280;42885;49.754;18.636;2023-09-19T06:31:12;97720.61;;;21.63;100.00
56992;BME280;42885;49.754;18.636;2023-09-19T06:33:45;97730.30;;;21.55;100.00
56992;BME280;42885;49.754;18.636;2023-09-19T06:36:25;97731.59;;;21.68;100.00
56992;BME280;42885;49.754;18.636;2023-09-19T06:39:15;97732.28;;;21.57;100.00
56992;BME280;42885;49.754;18.636;2023-09-19T06:42:04;97740.61;;;21.31;100.00
56992;BME280;42885;49.754;18.636;2023-09-19T06:44:53;97741.05;;;21.07;100.00
56992;BME280;42885;49.754;18.636;2023-09-19T06:47:24;97743.07;;;21.01;100.00
56992;BME280;42885;49.754;18.636;2023-09-19T06:49:58;97740.09;;;20.96;100.00
56992;BME280;42885;49.754;18.636;2023-09-19T06:52:47;97747.26;;;20.95;100.00
56992;BME280;42885;49.754;18.636;2023-09-19T06:55:25;97752.99;;;21.11;100.00
56992;BME280;42885;49.754;18.636;2023-09-19T06:58:10;97752.08;;;20.79;100.00
56992;BME280;42885;49.754;18.636;2023-09-19T07:00:59;97762.06;;;20.77;100.00
56992;BME280;42885;49.754;18.636;2023-09-19T07:03:49;97755.98;;;20.60;100.00
56992;BME280;42885;49.754;18.636;2023-09-19T07:06:27;97765.10;;;20.66;100.00
56992;BME280;42885;49.754;18.636;2023-09-19T07:09:08;97763.27;;;20.70;100.00
56992;BME280;42885;49.754;18.636;2023-09-19T07:11:40;97771.09;;;20.63;100.00
56992;BME280;42885;49.754;18.636;2023-09-19T07:14:12;97768.40;;;20.88;100.00
56992;BME280;42885;49.754;18.636;2023-09-19T07:16:44;97772.88;;;20.92;100.00
56992;BME280;42885;49.754;18.636;2023-09-19T07:19:35;97776.53;;;20.79;100.00
56992;BME280;42885;49.754;18.636;2023-09-19T07:22:15;97783.00;;;20.93;100.00
56992;BME280;42885;49.754;18.636;2023-09-19T07:24:48;97785.73;;;21.16;100.00
56992;BME280;42885;49.754;18.636;2023-09-19T07:27:37;97789.63;;;21.01;100.00
56992;BME280;42885;49.754;18.636;2023-09-19T07:30:10;97796.98;;;20.70;100.00
56992;BME280;42885;49.754;18.636;2023-09-19T07:32:41;97804.30;;;20.84;100.00
56992;BME280;42885;49.754;18.636;2023-09-19T07:35:18;97806.44;;;20.81;100.00
56992;BME280;42885;49.754;18.636;2023-09-19T07:37:50;97816.27;;;20.88;100.00
56992;BME280;42885;49.754;18.636;2023-09-19T07:40:28;97818.59;;;20.83;100.00
56992;BME280;42885;49.754;18.636;2023-09-19T07:43:15;97822.19;;;21.03;100.00
56992;BME280;42885;49.754;18.636;2023-09-19T07:46:06;97821.73;;;20.95;100.00
56992;BME280;42885;49.754;18.636;2023-09-19T07:48:48;97818.41;;;20.89;100.00
56992;BME280;42885;49.754;18.636;2023-09-19T07:51:21;97834.19;;;20.78;100.00
56992;BME280;42885;49.754;18.636;2023-09-19T07:54:01;97827.06;;;20.87;100.00
56992;BME280;42885;49.754;18.636;2023-09-19T07:56:36;97832.55;;;20.89;100.00
56992;BME280;42885;49.754;18.636;2023-09-19T07:59:13;97836.19;;;20.93;100.00
56992;BME280;42885;49.754;18.636;2023-09-19T08:01:47;97836.00;;;20.98;100.00
56992;BME280;42885;49.754;18.636;2023-09-19T08:04:25;97842.58;;;21.27;100.00
56992;BME280;42885;49.754;18.636;2023-09-19T08:07:14;97839.31;;;21.04;100.00
56992;BME280;42885;49.754;18.636;2023-09-19T08:10:02;97844.15;;;21.01;100.00
56992;BME280;42885;49.754;18.636;2023-09-19T08:12:48;97850.42;;;21.16;100.00
56992;BME280;42885;49.754;18.636;2023-09-19T08:15:33;97856.16;;;20.88;100.00
56992;BME280;42885;49.754;18.636;2023-09-19T08:18:04;97856.08;;;21.17;100.00
56992;BME280;42885;49.754;18.636;2023-09-19T08:20:53;97858.78;;;21.01;100.00
56992;BME280;42885;49.754;18.636;2023-09-19T08:23:24;97866.27;;;20.97;100.00
56992;BME280;42885;49.754;18.636;2023-09-19T08:26:13;97862.91;;;21.12;100.00
56992;BME280;42885;49.754;18.636;2023-09-19T08:28:53;97867.42;;;21.07;100.00
56992;BME280;42885;49.754;18.636;2023-09-19T08:31:34;97872.69;;;21.20;100.00
56992;BME280;42885;49.754;18.636;2023-09-19T08:34:10;97869.02;;;21.21;100.00
56992;BME280;42885;49.754;18.636;2023-09-19T08:36:59;97876.41;;;20.94;100.00
56992;BME280;42885;49.754;18.636;2023-09-19T08:39:37;97872.08;;;21.01;100.00
56992;BME280;42885;49.754;18.636;2023-09-19T08:42:28;97875.74;;;21.00;100.00
56992;BME280;42885;49.754;18.636;2023-09-19T08:45:11;97874.05;;;21.11;100.00
56992;BME280;42885;49.754;18.636;2023-09-19T08:50:57;97880.70;;;21.15;100.00
56992;BME280;42885;49.754;18.636;2023-09-19T08:53:50;97879.34;;;21.24;100.00
56992;BME280;42885;49.754;18.636;2023-09-19T08:56:28;97883.47;;;21.30;100.00
56992;BME280;42885;49.754;18.636;2023-09-19T08:59:14;97873.55;;;22.51;100.00
56992;BME280;42885;49.754;18.636;2023-09-19T09:01:56;97886.20;;;21.54;100.00
56992;BME280;42885;49.754;18.636;2023-09-19T09:04:46;97886.36;;;21.69;100.00
56992;BME280;42885;49.754;18.636;2023-09-19T09:07:37;97891.17;;;21.61;100.00
56992;BME280;42885;49.754;18.636;2023-09-19T09:10:12;97891.99;;;21.17;100.00
56992;BME280;42885;49.754;18.636;2023-09-19T09:12:55;97890.55;;;20.94;100.00
56992;BME280;42885;49.754;18.636;2023-09-19T09:15:26;97901.18;;;21.02;100.00
56992;BME280;42885;49.754;18.636;2023-09-19T09:18:12;97900.85;;;21.01;100.00
56992;BME280;42885;49.754;18.636;2023-09-19T09:21:01;97899.53;;;20.93;100.00
56992;BME280;42885;49.754;18.636;2023-09-19T09:23:51;97900.37;;;20.89;100.00
56992;BME280;42885;49.754;18.636;2023-09-19T09:32:31;97899.20;;;20.92;100.00
56992;BME280;42885;49.754;18.636;2023-09-19T09:35:21;97903.34;;;20.86;100.00
56992;BME280;42885;49.754;18.636;2023-09-19T09:37:59;97913.65;;;20.73;100.00
56992;BME280;42885;49.754;18.636;2023-09-19T09:40:51;97914.30;;;20.67;100.00
56992;BME280;42885;49.754;18.636;2023-09-19T09:43:25;97912.98;;;20.75;100.00
56992;BME280;42885;49.754;18.636;2023-09-19T09:46:17;97921.11;;;20.73;100.00
56992;BME280;42885;49.754;18.636;2023-09-19T09:49:11;97909.00;;;20.92;100.00
56992;BME280;42885;49.754;18.636;2023-09-19T09:51:59;97914.66;;;20.84;100.00
56992;BME280;42885;49.754;18.636;2023-09-19T09:55:01;97924.45;;;20.75;100.00
56992;BME280;42885;49.754;18.636;2023-09-19T09:57:43;97920.95;;;20.58;100.00
56992;BME280;42885;49.754;18.636;2023-09-19T10:00:28;97928.27;;;20.73;100.00
56992;BME280;42885;49.754;18.636;2023-09-19T10:03:21;97925.14;;;20.86;100.00
56992;BME280;42885;49.754;18.636;2023-09-19T10:06:12;97928.60;;;20.66;100.00
56992;BME280;42885;49.754;18.636;2023-09-19T10:09:12;97927.95;;;20.93;100.00
56992;BME280;42885;49.754;18.636;2023-09-19T10:12:09;97934.07;;;21.14;100.00
56992;BME280;42885;49.754;18.636;2023-09-19T10:14:50;97934.59;;;21.01;100.00
56992;BME280;42885;49.754;18.636;2023-09-19T10:17:47;97936.08;;;21.12;100.00
56992;BME280;42885;49.754;18.636;2023-09-19T10:20:33;97942.25;;;20.92;100.00
56992;BME280;42885;49.754;18.636;2023-09-19T10:23:15;97949.86;;;20.78;100.00
56992;BME280;42885;49.754;18.636;2023-09-19T10:26:06;97948.07;;;20.87;100.00
56992;BME280;42885;49.754;18.636;2023-09-19T10:28:57;97954.89;;;20.98;100.00
56992;BME280;42885;49.754;18.636;2023-09-19T10:31:38;97954.89;;;20.98;100.00
56992;BME280;42885;49.754;18.636;2023-09-19T10:34:17;97952.38;;;21.04;100.00
56992;BME280;42885;49.754;18.636;2023-09-19T10:37:08;97957.48;;;21.39;100.00
56992;BME280;42885;49.754;18.636;2023-09-19T10:39:41;97965.80;;;21.40;100.00
56992;BME280;42885;49.754;18.636;2023-09-19T10:42:17;97956.47;;;21.36;100.00
56992;BME280;42885;49.754;18.636;2023-09-19T10:45:08;97954.94;;;22.34;100.00
56992;BME280;42885;49.754;18.636;2023-09-19T10:47:47;97957.07;;;22.07;100.00
56992;BME280;42885;49.754;18.636;2023-09-19T10:50:21;97964.17;;;21.88;100.00
56992;BME280;42885;49.754;18.636;2023-09-19T10:52:56;97967.00;;;21.86;100.00
56992;BME280;42885;49.754;18.636;2023-09-19T10:55:37;97968.39;;;21.73;100.00
56992;BME280;42885;49.754;18.636;2023-09-19T10:58:34;97970.89;;;21.71;100.00
56992;BME280;42885;49.754;18.636;2023-09-19T11:01:02;97970.39;;;22.07;100.00
56992;BME280;42885;49.754;18.636;2023-09-19T11:04:20;97971.52;;;21.85;100.00
56992;BME280;42885;49.754;18.636;2023-09-19T11:06:26;97979.66;;;21.88;100.00
56992;BME280;42885;49.754;18.636;2023-09-19T11:09:02;97976.19;;;21.79;100.00
56992;BME280;42885;49.754;18.636;2023-09-19T11:12:05;97987.19;;;22.12;100.00
56992;BME280;42885;49.754;18.636;2023-09-19T11:14:40;97974.13;;;22.30;100.00
56992;BME280;42885;49.754;18.636;2023-09-19T11:17:43;97980.01;;;22.48;100.00
56992;BME280;42885;49.754;18.636;2023-09-19T11:20:25;97977.84;;;22.75;100.00
56992;BME280;42885;49.754;18.636;2023-09-19T11:26:10;97995.36;;;22.46;100.00
56992;BME280;42885;49.754;18.636;2023-09-19T11:29:24;97989.23;;;22.37;100.00
56992;BME280;42885;49.754;18.636;2023-09-19T11:31:42;97994.84;;;22.47;100.00
56992;BME280;42885;49.754;18.636;2023-09-19T11:34:40;97988.27;;;22.30;100.00
56992;BME280;42885;49.754;18.636;2023-09-19T11:40:13;97994.22;;;22.72;100.00
56992;BME280;42885;49.754;18.636;2023-09-19T11:43:27;97995.16;;;22.79;100.00
56992;BME280;42885;49.754;18.636;2023-09-19T11:48:19;97999.18;;;22.75;100.00
56992;BME280;42885;49.754;18.636;2023-09-19T11:50:50;97988.55;;;23.14;100.00
56992;BME280;42885;49.754;18.636;2023-09-19T11:53:31;97992.14;;;23.40;100.00
56992;BME280;42885;49.754;18.636;2023-09-19T11:56:06;97981.36;;;23.83;100.00
56992;BME280;42885;49.754;18.636;2023-09-19T11:58:44;97990.13;;;24.65;100.00
56992;BME280;42885;49.754;18.636;2023-09-19T12:01:21;97989.52;;;24.48;100.00
56992;BME280;42885;49.754;18.636;2023-09-19T12:04:02;97986.83;;;24.85;100.00
56992;BME280;42885;49.754;18.636;2023-09-19T12:06:41;97988.35;;;24.25;100.00
56992;BME280;42885;49.754;18.636;2023-09-19T12:09:32;97987.03;;;24.83;100.00
56992;BME280;42885;49.754;18.636;2023-09-19T12:12:15;97980.45;;;26.07;100.00
56992;BME280;42885;49.754;18.636;2023-09-19T12:14:50;97983.50;;;25.15;100.00
56992;BME280;42885;49.754;18.636;2023-09-19T12:17:36;97980.82;;;25.15;100.00
56992;BME280;42885;49.754;18.636;2023-09-19T12:20:17;97981.59;;;25.91;100.00
56992;BME280;42885;49.754;18.636;2023-09-19T12:23:14;97993.02;;;24.96;100.00
56992;BME280;42885;49.754;18.636;2023-09-19T12:25:45;97989.16;;;24.73;100.00
56992;BME280;42885;49.754;18.636;2023-09-19T12:28:21;97992.09;;;24.67;100.00
56992;BME280;42885;49.754;18.636;2023-09-19T12:31:07;97985.30;;;24.97;100.00
56992;BME280;42885;49.754;18.636;2023-09-19T12:33:42;97987.41;;;26.01;92.75
56992;BME280;42885;49.754;18.636;2023-09-19T12:36:32;97986.03;;;25.88;100.00
56992;BME280;42885;49.754;18.636;2023-09-19T12:39:25;97984.81;;;25.90;98.18
56992;BME280;42885;49.754;18.636;2023-09-19T12:42:15;97986.98;;;25.73;97.43
56992;BME280;42885;49.754;18.636;2023-09-19T12:44:52;97990.09;;;25.31;99.12
56992;BME280;42885;49.754;18.636;2023-09-19T12:47:25;97983.51;;;25.05;98.53
56992;BME280;42885;49.754;18.636;2023-09-19T12:50:13;97980.84;;;25.62;98.25
56992;BME280;42885;49.754;18.636;2023-09-19T12:52:52;97986.27;;;25.47;90.11
56992;BME280;42885;49.754;18.636;2023-09-19T12:55:29;97982.00;;;24.95;97.58
56992;BME280;42885;49.754;18.636;2023-09-19T12:58:21;97981.47;;;24.63;99.49
56992;BME280;42885;49.754;18.636;2023-09-19T13:00:55;97985.90;;;24.78;99.10
56992;BME280;42885;49.754;18.636;2023-09-19T13:03:28;97986.69;;;24.71;98.70
56992;BME280;42885;49.754;18.636;2023-09-19T13:06:04;97986.69;;;24.93;100.00
56992;BME280;42885;49.754;18.636;2023-09-19T13:08:39;97990.61;;;24.91;100.00
56992;BME280;42885;49.754;18.636;2023-09-19T13:11:16;97978.41;;;25.27;97.61
56992;BME280;42885;49.754;18.636;2023-09-19T13:17:05;97979.05;;;24.57;100.00
56992;BME280;42885;49.754;18.636;2023-09-19T13:19:48;97984.02;;;24.24;100.00
56992;BME280;42885;49.754;18.636;2023-09-19T13:22:42;97980.30;;;24.29;100.00
56992;BME280;42885;49.754;18.636;2023-09-19T13:25:17;97978.69;;;23.93;100.00
56992;BME280;42885;49.754;18.636;2023-09-19T13:28:07;97980.13;;;23.85;100.00
56992;BME280;42885;49.754;18.636;2023-09-19T13:30:38;97981.34;;;23.68;100.00
56992;BME280;42885;49.754;18.636;2023-09-19T13:33:11;97980.65;;;23.40;100.00
56992;BME280;42885;49.754;18.636;2023-09-19T13:35:49;97980.19;;;23.36;100.00
56992;BME280;42885;49.754;18.636;2023-09-19T13:38:37;97981.81;;;23.18;100.00
56992;BME280;42885;49.754;18.636;2023-09-19T13:41:09;97982.45;;;23.43;100.00
56992;BME280;42885;49.754;18.636;2023-09-19T13:43:59;97990.08;;;23.31;100.00
56992;BME280;42885;49.754;18.636;2023-09-19T13:46:42;97993.03;;;22.94;100.00
56992;BME280;42885;49.754;18.636;2023-09-19T13:49:21;97990.81;;;23.02;100.00
56992;BME280;42885;49.754;18.636;2023-09-19T13:52:02;97993.50;;;22.98;100.00
56992;BME280;42885;49.754;18.636;2023-09-19T13:54:33;97993.14;;;23.20;100.00
56992;BME280;42885;49.754;18.636;2023-09-19T13:57:26;97992.87;;;23.15;100.00
56992;BME280;42885;49.754;18.636;2023-09-19T14:00:15;97994.70;;;22.72;100.00
56992;BME280;42885;49.754;18.636;2023-09-19T14:03:05;97983.65;;;22.79;100.00
56992;BME280;42885;49.754;18.636;2023-09-19T14:05:36;97984.77;;;22.85;100.00
56992;BME280;42885;49.754;18.636;2023-09-19T14:08:07;97985.26;;;22.65;100.00
56992;BME280;42885;49.754;18.636;2023-09-19T14:10:40;97973.47;;;22.78;100.00